sensor_id;sensor_type;location;lat;lon;timestamp;pressure;altitude;pressure_sealevel;temperature;humidity
77323;BME280;66384;51.052;9.850;2023-07-30T00:00:43;97965.00;;;18.75;71.55
77323;BME280;66384;51.052;9.850;2023-07-30T00:03:34;97960.63;;;18.76;71.67
77323;BME280;66384;51.052;9.850;2023-07-30T00:06:06;97962.52;;;18.77;71.62
77323;BME280;66384;51.052;9.850;2023-07-30T00:08:38;97961.14;;;18.77;71.72
77323;BME280;66384;51.052;9.850;2023-07-30T00:11:09;97967.58;;;18.77;71.66
77323;BME280;66384;51.052;9.850;2023-07-30T00:13:41;97969.33;;;18.76;71.99
77323;BME280;66384;51.052;9.850;2023-07-30T00:16:13;97972.48;;;18.76;71.74
77323;BME280;66384;51.052;9.850;2023-07-30T00:18:45;97968.83;;;18.75;71.52
77323;BME280;66384;51.052;9.850;2023-07-30T00:21:16;97974.75;;;18.76;71.25
77323;BME280;66384;51.052;9.850;2023-07-30T00:23:48;97979.64;;;18.75;71.02
77323;BME280;66384;51.052;9.850;2023-07-30T00:26:19;97977.21;;;18.74;70.88
77323;BME280;66384;51.052;9.850;2023-07-30T00:28:51;97980.70;;;18.72;70.83
77323;BME280;66384;51.052;9.850;2023-07-30T00:31:22;97979.17;;;18.69;71.03
77323;BME280;66384;51.052;9.850;2023-07-30T00:33:54;97979.57;;;18.67;71.29
77323;BME280;66384;51.052;9.850;2023-07-30T00:36:26;97979.30;;;18.63;71.36
77323;BME280;66384;51.052;9.850;2023-07-30T00:38:57;97978.95;;;18.62;71.35
77323;BME280;66384;51.052;9.850;2023-07-30T00:41:29;97979.66;;;18.61;71.73
77323;BME280;66384;51.052;9.850;2023-07-30T00:44:00;97982.52;;;18.58;71.86
77323;BME280;66384;51.052;9.850;2023-07-30T00:46:32;97980.96;;;18.56;71.81
77323;BME280;66384;51.052;9.850;2023-07-30T00:49:04;97978.74;;;18.54;71.89
77323;BME280;66384;51.052;9.850;2023-07-30T00:51:35;97982.79;;;18.52;71.87
77323;BME280;66384;51.052;9.850;2023-07-30T00:54:07;97984.70;;;18.52;71.98
77323;BME280;66384;51.052;9.850;2023-07-30T00:56:41;97988.38;;;18.51;72.12
77323;BME280;66384;51.052;9.850;2023-07-30T00:59:18;97988.22;;;18.50;72.10
77323;BME280;66384;51.052;9.850;2023-07-30T01:01:50;97995.02;;;18.50;72.49
77323;BME280;66384;51.052;9.850;2023-07-30T01:04:22;97992.95;;;18.49;72.75
77323;BME280;66384;51.052;9.850;2023-07-30T01:06:55;97991.91;;;18.48;72.67
77323;BME280;66384;51.052;9.850;2023-07-30T01:09:26;97994.75;;;18.45;72.76
77323;BME280;66384;51.052;9.850;2023-07-30T01:11:58;97997.75;;;18.42;72.80
77323;BME280;66384;51.052;9.850;2023-07-30T01:14:31;97997.23;;;18.43;72.85
77323;BME280;66384;51.052;9.850;2023-07-30T01:17:03;97991.11;;;18.44;72.85
77323;BME280;66384;51.052;9.850;2023-07-30T01:19:35;97992.48;;;18.45;72.70
77323;BME280;66384;51.052;9.850;2023-07-30T01:22:06;97995.79;;;18.46;72.67
77323;BME280;66384;51.052;9.850;2023-07-30T01:24:38;97996.50;;;18.44;72.61
77323;BME280;66384;51.052;9.850;2023-07-30T01:27:14;97998.10;;;18.42;72.62
77323;BME280;66384;51.052;9.850;2023-07-30T01:29:51;98000.37;;;18.41;72.71
77323;BME280;66384;51.052;9.850;2023-07-30T01:32:27;98004.08;;;18.39;72.62
77323;BME280;66384;51.052;9.850;2023-07-30T01:35:00;98007.58;;;18.38;72.47
77323;BME280;66384;51.052;9.850;2023-07-30T01:37:33;98004.98;;;18.37;72.48
77323;BME280;66384;51.052;9.850;2023-07-30T01:40:07;98007.43;;;18.36;72.54
77323;BME280;66384;51.052;9.850;2023-07-30T01:42:39;98017.17;;;18.37;72.48
77323;BME280;66384;51.052;9.850;2023-07-30T01:45:10;98017.70;;;18.36;72.54
77323;BME280;66384;51.052;9.850;2023-07-30T01:47:42;98022.27;;;18.33;72.46
77323;BME280;66384;51.052;9.850;2023-07-30T01:50:14;98019.55;;;18.30;72.28
77323;BME280;66384;51.052;9.850;2023-07-30T01:52:45;98018.73;;;18.26;72.19
77323;BME280;66384;51.052;9.850;2023-07-30T01:55:17;98019.34;;;18.21;72.23
77323;BME280;66384;51.052;9.850;2023-07-30T01:57:49;98019.40;;;18.16;71.93
77323;BME280;66384;51.052;9.850;2023-07-30T02:00:20;98020.02;;;18.11;71.80
77323;BME280;66384;51.052;9.850;2023-07-30T02:02:52;98025.63;;;18.08;71.90
77323;BME280;66384;51.052;9.850;2023-07-30T02:05:25;98032.45;;;18.05;71.79
77323;BME280;66384;51.052;9.850;2023-07-30T02:07:57;98039.65;;;18.00;71.85
77323;BME280;66384;51.052;9.850;2023-07-30T02:10:29;98043.91;;;17.94;71.80
77323;BME280;66384;51.052;9.850;2023-07-30T02:13:00;98052.69;;;17.88;71.78
77323;BME280;66384;51.052;9.850;2023-07-30T02:15:32;98047.52;;;17.85;71.89
77323;BME280;66384;51.052;9.850;2023-07-30T02:18:03;98044.41;;;17.84;71.76
77323;BME280;66384;51.052;9.850;2023-07-30T02:20:35;98042.69;;;17.82;71.73
77323;BME280;66384;51.052;9.850;2023-07-30T02:23:06;98042.52;;;17.81;71.87
77323;BME280;66384;51.052;9.850;2023-07-30T02:25:38;98035.09;;;17.78;71.78
77323;BME280;66384;51.052;9.850;2023-07-30T02:28:10;98038.23;;;17.73;71.79
77323;BME280;66384;51.052;9.850;2023-07-30T02:30:44;98038.83;;;17.69;71.91
77323;BME280;66384;51.052;9.850;2023-07-30T02:33:16;98035.59;;;17.63;71.80
77323;BME280;66384;51.052;9.850;2023-07-30T02:35:47;98032.88;;;17.57;71.83
77323;BME280;66384;51.052;9.850;2023-07-30T02:38:19;98032.94;;;17.53;71.78
77323;BME280;66384;51.052;9.850;2023-07-30T02:40:50;98036.98;;;17.50;71.85
77323;BME280;66384;51.052;9.850;2023-07-30T02:43:22;98035.09;;;17.47;71.96
77323;BME280;66384;51.052;9.850;2023-07-30T02:45:53;98034.75;;;17.46;72.02
77323;BME280;66384;51.052;9.850;2023-07-30T02:48:25;98034.42;;;17.46;72.13
77323;BME280;66384;51.052;9.850;2023-07-30T02:50:57;98033.58;;;17.43;72.17
77323;BME280;66384;51.052;9.850;2023-07-30T02:53:28;98037.60;;;17.41;72.05
77323;BME280;66384;51.052;9.850;2023-07-30T02:56:00;98040.08;;;17.38;72.09
77323;BME280;66384;51.052;9.850;2023-07-30T02:58:32;98045.35;;;17.34;72.14
77323;BME280;66384;51.052;9.850;2023-07-30T03:01:08;98043.47;;;17.30;72.30
77323;BME280;66384;51.052;9.850;2023-07-30T03:03:40;98047.30;;;17.28;72.40
77323;BME280;66384;51.052;9.850;2023-07-30T03:06:11;98047.48;;;17.28;72.32
77323;BME280;66384;51.052;9.850;2023-07-30T03:08:44;98054.10;;;17.27;72.35
77323;BME280;66384;51.052;9.850;2023-07-30T03:11:15;98057.92;;;17.26;72.55
77323;BME280;66384;51.052;9.850;2023-07-30T03:13:47;98055.84;;;17.26;72.50
77323;BME280;66384;51.052;9.850;2023-07-30T03:16:19;98054.65;;;17.24;72.76
77323;BME280;66384;51.052;9.850;2023-07-30T03:18:50;98058.48;;;17.23;72.88
77323;BME280;66384;51.052;9.850;2023-07-30T03:21:22;98053.64;;;17.21;72.87
77323;BME280;66384;51.052;9.850;2023-07-30T03:23:54;98058.36;;;17.19;72.82
77323;BME280;66384;51.052;9.850;2023-07-30T03:26:25;98058.20;;;17.16;73.01
77323;BME280;66384;51.052;9.850;2023-07-30T03:28:57;98057.90;;;17.11;73.11
77323;BME280;66384;51.052;9.850;2023-07-30T03:31:28;98062.45;;;17.10;73.21
77323;BME280;66384;51.052;9.850;2023-07-30T03:34:00;98068.73;;;17.08;73.55
77323;BME280;66384;51.052;9.850;2023-07-30T03:36:31;98071.86;;;17.07;73.65
77323;BME280;66384;51.052;9.850;2023-07-30T03:39:03;98078.12;;;17.05;73.93
77323;BME280;66384;51.052;9.850;2023-07-30T03:41:35;98075.88;;;17.04;74.29
77323;BME280;66384;51.052;9.850;2023-07-30T03:44:07;98076.09;;;17.00;74.41
77323;BME280;66384;51.052;9.850;2023-07-30T03:46:38;98076.11;;;16.97;74.49
77323;BME280;66384;51.052;9.850;2023-07-30T03:49:10;98080.64;;;16.96;74.66
77323;BME280;66384;51.052;9.850;2023-07-30T03:51:41;98083.59;;;16.96;74.74
77323;BME280;66384;51.052;9.850;2023-07-30T03:54:13;98090.22;;;16.94;75.05
77323;BME280;66384;51.052;9.850;2023-07-30T03:56:44;98088.84;;;16.91;75.05
77323;BME280;66384;51.052;9.850;2023-07-30T03:59:16;98085.73;;;16.91;75.02
77323;BME280;66384;51.052;9.850;2023-07-30T04:01:48;98086.61;;;16.89;74.99
77323;BME280;66384;51.052;9.850;2023-07-30T04:04:22;98088.20;;;16.87;74.99
77323;BME280;66384;51.052;9.850;2023-07-30T04:06:53;98097.73;;;16.88;75.11
77323;BME280;66384;51.052;9.850;2023-07-30T04:09:25;98099.81;;;16.89;74.94
77323;BME280;66384;51.052;9.850;2023-07-30T04:11:56;98097.91;;;16.89;74.91
77323;BME280;66384;51.052;9.850;2023-07-30T04:14:28;98104.65;;;16.92;74.88
77323;BME280;66384;51.052;9.850;2023-07-30T04:16:59;98107.60;;;16.93;74.86
77323;BME280;66384;51.052;9.850;2023-07-30T04:19:31;98118.53;;;16.96;74.78
77323;BME280;66384;51.052;9.850;2023-07-30T04:22:02;98116.95;;;16.97;74.68
77323;BME280;66384;51.052;9.850;2023-07-30T04:24:34;98114.85;;;16.99;74.49
77323;BME280;66384;51.052;9.850;2023-07-30T04:27:06;98116.40;;;17.01;74.38
77323;BME280;66384;51.052;9.850;2023-07-30T04:29:38;98112.77;;;17.01;74.37
77323;BME280;66384;51.052;9.850;2023-07-30T04:32:10;98113.23;;;17.03;74.19
77323;BME280;66384;51.052;9.850;2023-07-30T04:34:41;98112.33;;;17.08;74.11
77323;BME280;66384;51.052;9.850;2023-07-30T04:37:12;98111.95;;;17.12;73.99
77323;BME280;66384;51.052;9.850;2023-07-30T04:39:44;98112.41;;;17.18;74.03
77323;BME280;66384;51.052;9.850;2023-07-30T04:42:15;98112.70;;;17.24;73.83
77323;BME280;66384;51.052;9.850;2023-07-30T04:44:47;98119.80;;;17.27;73.82
77323;BME280;66384;51.052;9.850;2023-07-30T04:47:19;98119.77;;;17.31;73.78
77323;BME280;66384;51.052;9.850;2023-07-30T04:49:50;98120.94;;;17.35;73.69
77323;BME280;66384;51.052;9.850;2023-07-30T04:52:22;98117.77;;;17.38;73.68
77323;BME280;66384;51.052;9.850;2023-07-30T04:54:53;98117.57;;;17.41;73.68
77323;BME280;66384;51.052;9.850;2023-07-30T04:57:25;98119.65;;;17.41;73.47
77323;BME280;66384;51.052;9.850;2023-07-30T04:59:57;98122.45;;;17.40;73.21
77323;BME280;66384;51.052;9.850;2023-07-30T05:02:29;98118.27;;;17.41;73.36
77323;BME280;66384;51.052;9.850;2023-07-30T05:05:02;98123.15;;;17.38;73.09
77323;BME280;66384;51.052;9.850;2023-07-30T05:07:33;98129.77;;;17.38;72.96
77323;BME280;66384;51.052;9.850;2023-07-30T05:10:07;98129.40;;;17.39;72.74
77323;BME280;66384;51.052;9.850;2023-07-30T05:12:41;98124.55;;;17.39;72.58
77323;BME280;66384;51.052;9.850;2023-07-30T05:15:12;98120.55;;;17.39;72.72
77323;BME280;66384;51.052;9.850;2023-07-30T05:17:44;98122.98;;;17.39;72.55
77323;BME280;66384;51.052;9.850;2023-07-30T05:20:15;98118.30;;;17.38;72.48
77323;BME280;66384;51.052;9.850;2023-07-30T05:22:47;98123.52;;;17.38;72.66
77323;BME280;66384;51.052;9.850;2023-07-30T05:25:18;98123.34;;;17.38;72.56
77323;BME280;66384;51.052;9.850;2023-07-30T05:27:50;98122.48;;;17.37;72.44
77323;BME280;66384;51.052;9.850;2023-07-30T05:30:22;98124.20;;;17.39;72.37
77323;BME280;66384;51.052;9.850;2023-07-30T05:32:53;98121.59;;;17.40;72.29
77323;BME280;66384;51.052;9.850;2023-07-30T05:35:25;98119.84;;;17.40;72.29
77323;BME280;66384;51.052;9.850;2023-07-30T05:37:56;98119.47;;;17.41;72.16
77323;BME280;66384;51.052;9.850;2023-07-30T05:40:28;98119.45;;;17.43;72.16
77323;BME280;66384;51.052;9.850;2023-07-30T05:42:59;98123.06;;;17.47;72.07
77323;BME280;66384;51.052;9.850;2023-07-30T05:45:31;98116.42;;;17.50;72.03
77323;BME280;66384;51.052;9.850;2023-07-30T05:48:03;98115.16;;;17.55;71.78
77323;BME280;66384;51.052;9.850;2023-07-30T05:50:35;98119.64;;;17.58;71.46
77323;BME280;66384;51.052;9.850;2023-07-30T05:53:06;98120.66;;;17.60;71.33
77323;BME280;66384;51.052;9.850;2023-07-30T05:55:38;98121.50;;;17.63;71.19
77323;BME280;66384;51.052;9.850;2023-07-30T05:58:09;98117.83;;;17.65;71.12
77323;BME280;66384;51.052;9.850;2023-07-30T06:00:41;98115.01;;;17.67;71.21
77323;BME280;66384;51.052;9.850;2023-07-30T06:03:12;98116.55;;;17.70;71.34
77323;BME280;66384;51.052;9.850;2023-07-30T06:05:44;98109.36;;;17.74;71.19
77323;BME280;66384;51.052;9.850;2023-07-30T06:08:16;98110.21;;;17.78;71.33
77323;BME280;66384;51.052;9.850;2023-07-30T06:10:47;98106.55;;;17.81;71.53
77323;BME280;66384;51.052;9.850;2023-07-30T06:13:19;98107.37;;;17.85;71.72
77323;BME280;66384;51.052;9.850;2023-07-30T06:15:50;98105.73;;;17.90;71.71
77323;BME280;66384;51.052;9.850;2023-07-30T06:18:22;98106.38;;;17.94;71.66
77323;BME280;66384;51.052;9.850;2023-07-30T06:20:54;98105.28;;;17.97;71.43
77323;BME280;66384;51.052;9.850;2023-07-30T06:23:25;98107.34;;;18.01;71.48
77323;BME280;66384;51.052;9.850;2023-07-30T06:25:57;98109.38;;;18.05;71.45
77323;BME280;66384;51.052;9.850;2023-07-30T06:28:28;98113.00;;;18.07;71.31
77323;BME280;66384;51.052;9.850;2023-07-30T06:31:02;98111.40;;;18.09;71.16
77323;BME280;66384;51.052;9.850;2023-07-30T06:33:33;98114.65;;;18.13;70.97
77323;BME280;66384;51.052;9.850;2023-07-30T06:36:05;98119.82;;;18.17;70.81
77323;BME280;66384;51.052;9.850;2023-07-30T06:38:37;98120.15;;;18.19;70.58
77323;BME280;66384;51.052;9.850;2023-07-30T06:41:08;98117.86;;;18.20;70.73
77323;BME280;66384;51.052;9.850;2023-07-30T06:43:40;98117.13;;;18.24;70.63
77323;BME280;66384;51.052;9.850;2023-07-30T06:46:11;98116.52;;;18.29;70.73
77323;BME280;66384;51.052;9.850;2023-07-30T06:48:43;98117.30;;;18.35;70.65
77323;BME280;66384;51.052;9.850;2023-07-30T06:51:14;98118.95;;;18.42;70.33
77323;BME280;66384;51.052;9.850;2023-07-30T06:53:50;98119.36;;;18.49;69.41
77323;BME280;66384;51.052;9.850;2023-07-30T06:56:22;98118.06;;;18.55;69.05
77323;BME280;66384;51.052;9.850;2023-07-30T06:58:53;98117.46;;;18.59;68.70
77323;BME280;66384;51.052;9.850;2023-07-30T07:01:25;98121.78;;;18.62;68.56
77323;BME280;66384;51.052;9.850;2023-07-30T07:03:57;98118.59;;;18.66;68.44
77323;BME280;66384;51.052;9.850;2023-07-30T07:06:29;98120.59;;;18.72;67.88
77323;BME280;66384;51.052;9.850;2023-07-30T07:09:00;98116.16;;;18.78;67.78
77323;BME280;66384;51.052;9.850;2023-07-30T07:11:32;98114.84;;;18.85;67.14
77323;BME280;66384;51.052;9.850;2023-07-30T07:14:04;98115.59;;;18.93;67.13
77323;BME280;66384;51.052;9.850;2023-07-30T07:16:35;98118.59;;;19.00;66.46
77323;BME280;66384;51.052;9.850;2023-07-30T07:19:07;98115.30;;;19.09;66.04
77323;BME280;66384;51.052;9.850;2023-07-30T07:21:38;98114.71;;;19.22;66.08
77323;BME280;66384;51.052;9.850;2023-07-30T07:24:10;98123.04;;;19.35;65.92
77323;BME280;66384;51.052;9.850;2023-07-30T07:26:41;98126.39;;;19.51;65.54
77323;BME280;66384;51.052;9.850;2023-07-30T07:29:13;98125.66;;;19.63;65.15
77323;BME280;66384;51.052;9.850;2023-07-30T07:31:46;98129.82;;;19.75;64.88
77323;BME280;66384;51.052;9.850;2023-07-30T07:34:17;98140.80;;;19.84;64.42
77323;BME280;66384;51.052;9.850;2023-07-30T07:36:49;98143.52;;;19.87;63.35
77323;BME280;66384;51.052;9.850;2023-07-30T07:39:20;98143.38;;;19.86;63.51
77323;BME280;66384;51.052;9.850;2023-07-30T07:41:52;98146.30;;;19.88;63.59
77323;BME280;66384;51.052;9.850;2023-07-30T07:44:24;98149.89;;;19.92;63.79
77323;BME280;66384;51.052;9.850;2023-07-30T07:46:56;98152.60;;;19.96;62.55
77323;BME280;66384;51.052;9.850;2023-07-30T07:49:27;98155.30;;;20.00;61.72
77323;BME280;66384;51.052;9.850;2023-07-30T07:51:59;98154.52;;;20.05;61.43
77323;BME280;66384;51.052;9.850;2023-07-30T07:54:30;98152.90;;;20.07;61.07
77323;BME280;66384;51.052;9.850;2023-07-30T07:57:02;98153.18;;;20.10;61.09
77323;BME280;66384;51.052;9.850;2023-07-30T07:59:34;98146.14;;;20.13;60.53
77323;BME280;66384;51.052;9.850;2023-07-30T08:02:06;98148.89;;;20.15;60.83
77323;BME280;66384;51.052;9.850;2023-07-30T08:04:38;98148.41;;;20.21;60.85
77323;BME280;66384;51.052;9.850;2023-07-30T08:07:10;98150.51;;;20.30;60.54
77323;BME280;66384;51.052;9.850;2023-07-30T08:09:41;98153.14;;;20.37;60.07
77323;BME280;66384;51.052;9.850;2023-07-30T08:12:13;98146.00;;;20.43;59.84
77323;BME280;66384;51.052;9.850;2023-07-30T08:14:44;98145.52;;;20.49;59.68
77323;BME280;66384;51.052;9.850;2023-07-30T08:17:16;98150.98;;;20.57;59.95
77323;BME280;66384;51.052;9.850;2023-07-30T08:19:47;98147.68;;;20.63;59.64
77323;BME280;66384;51.052;9.850;2023-07-30T08:22:19;98151.36;;;20.70;59.65
77323;BME280;66384;51.052;9.850;2023-07-30T08:24:51;98150.29;;;20.79;58.86
77323;BME280;66384;51.052;9.850;2023-07-30T08:27:22;98149.07;;;20.86;58.00
77323;BME280;66384;51.052;9.850;2023-07-30T08:29:54;98145.96;;;20.91;57.99
77323;BME280;66384;51.052;9.850;2023-07-30T08:32:25;98136.77;;;20.96;57.68
77323;BME280;66384;51.052;9.850;2023-07-30T08:34:57;98138.02;;;21.02;57.86
77323;BME280;66384;51.052;9.850;2023-07-30T08:37:29;98132.15;;;21.06;57.54
77323;BME280;66384;51.052;9.850;2023-07-30T08:40:00;98123.61;;;21.12;57.57
77323;BME280;66384;51.052;9.850;2023-07-30T08:42:33;98122.02;;;21.19;57.38
77323;BME280;66384;51.052;9.850;2023-07-30T08:45:07;98123.52;;;21.29;57.42
77323;BME280;66384;51.052;9.850;2023-07-30T08:47:40;98123.79;;;21.40;57.16
77323;BME280;66384;51.052;9.850;2023-07-30T08:50:12;98122.08;;;21.51;56.89
77323;BME280;66384;51.052;9.850;2023-07-30T08:52:45;98128.50;;;21.60;56.62
77323;BME280;66384;51.052;9.850;2023-07-30T08:55:18;98132.69;;;21.67;56.60
77323;BME280;66384;51.052;9.850;2023-07-30T08:57:50;98130.48;;;21.76;56.51
77323;BME280;66384;51.052;9.850;2023-07-30T09:00:25;98131.86;;;21.83;55.97
77323;BME280;66384;51.052;9.850;2023-07-30T09:03:00;98129.10;;;21.88;56.03
77323;BME280;66384;51.052;9.850;2023-07-30T09:05:35;98132.48;;;21.86;55.92
77323;BME280;66384;51.052;9.850;2023-07-30T09:08:07;98133.83;;;21.82;55.72
77323;BME280;66384;51.052;9.850;2023-07-30T09:10:40;98134.41;;;21.74;55.66
77323;BME280;66384;51.052;9.850;2023-07-30T09:13:11;98130.46;;;21.71;55.73
77323;BME280;66384;51.052;9.850;2023-07-30T09:15:51;98129.34;;;21.74;56.12
77323;BME280;66384;51.052;9.850;2023-07-30T09:18:23;98132.61;;;21.76;55.98
77323;BME280;66384;51.052;9.850;2023-07-30T09:20:54;98137.73;;;21.74;55.54
77323;BME280;66384;51.052;9.850;2023-07-30T09:23:26;98137.16;;;21.70;55.37
77323;BME280;66384;51.052;9.850;2023-07-30T09:25:59;98140.27;;;21.65;55.14
77323;BME280;66384;51.052;9.850;2023-07-30T09:28:33;98144.95;;;21.60;55.16
77323;BME280;66384;51.052;9.850;2023-07-30T09:31:05;98143.38;;;21.53;54.67
77323;BME280;66384;51.052;9.850;2023-07-30T09:33:51;98144.79;;;21.52;54.84
77323;BME280;66384;51.052;9.850;2023-07-30T09:36:22;98141.98;;;21.52;54.87
77323;BME280;66384;51.052;9.850;2023-07-30T09:38:54;98144.91;;;21.55;54.95
77323;BME280;66384;51.052;9.850;2023-07-30T09:41:26;98148.03;;;21.55;54.73
77323;BME280;66384;51.052;9.850;2023-07-30T09:44:00;98149.50;;;21.53;54.75
77323;BME280;66384;51.052;9.850;2023-07-30T09:46:31;98159.34;;;21.51;54.45
77323;BME280;66384;51.052;9.850;2023-07-30T09:49:04;98158.86;;;21.43;54.43
77323;BME280;66384;51.052;9.850;2023-07-30T09:51:38;98150.92;;;21.31;54.59
77323;BME280;66384;51.052;9.850;2023-07-30T09:54:11;98155.02;;;21.21;54.92
77323;BME280;66384;51.052;9.850;2023-07-30T09:56:43;98153.62;;;21.15;55.36
77323;BME280;66384;51.052;9.850;2023-07-30T09:59:14;98154.30;;;21.15;55.42
77323;BME280;66384;51.052;9.850;2023-07-30T10:01:48;98150.55;;;21.18;55.45
77323;BME280;66384;51.052;9.850;2023-07-30T10:04:21;98149.15;;;21.18;55.64
77323;BME280;66384;51.052;9.850;2023-07-30T10:06:58;98151.62;;;21.18;55.60
77323;BME280;66384;51.052;9.850;2023-07-30T10:09:32;98152.59;;;21.14;55.48
77323;BME280;66384;51.052;9.850;2023-07-30T10:12:07;98156.05;;;21.08;55.69
77323;BME280;66384;51.052;9.850;2023-07-30T10:14:39;98158.44;;;21.03;55.91
77323;BME280;66384;51.052;9.850;2023-07-30T10:17:11;98159.77;;;20.99;56.07
77323;BME280;66384;51.052;9.850;2023-07-30T10:19:47;98157.47;;;20.94;56.28
77323;BME280;66384;51.052;9.850;2023-07-30T10:22:23;98158.61;;;20.89;56.42
77323;BME280;66384;51.052;9.850;2023-07-30T10:24:59;98154.77;;;20.88;56.57
77323;BME280;66384;51.052;9.850;2023-07-30T10:27:40;98153.66;;;20.92;56.56
77323;BME280;66384;51.052;9.850;2023-07-30T10:30:15;98149.93;;;20.94;56.70
77323;BME280;66384;51.052;9.850;2023-07-30T10:33:01;98156.27;;;20.92;56.81
77323;BME280;66384;51.052;9.850;2023-07-30T10:35:44;98153.67;;;20.90;57.00
77323;BME280;66384;51.052;9.850;2023-07-30T10:38:18;98155.66;;;20.88;56.86
77323;BME280;66384;51.052;9.850;2023-07-30T10:41:03;98159.96;;;20.84;57.23
77323;BME280;66384;51.052;9.850;2023-07-30T10:43:38;98154.02;;;20.84;57.24
77323;BME280;66384;51.052;9.850;2023-07-30T10:46:11;98153.48;;;20.84;57.37
77323;BME280;66384;51.052;9.850;2023-07-30T10:48:44;98155.20;;;20.85;57.81
77323;BME280;66384;51.052;9.850;2023-07-30T10:51:17;98153.52;;;20.89;58.08
77323;BME280;66384;51.052;9.850;2023-07-30T10:53:51;98153.56;;;20.89;58.36
77323;BME280;66384;51.052;9.850;2023-07-30T10:56:24;98150.37;;;20.90;58.28
77323;BME280;66384;51.052;9.850;2023-07-30T10:58:56;98151.58;;;20.90;58.46
77323;BME280;66384;51.052;9.850;2023-07-30T11:01:28;98154.56;;;20.90;58.28
77323;BME280;66384;51.052;9.850;2023-07-30T11:04:00;98160.72;;;20.88;58.41
77323;BME280;66384;51.052;9.850;2023-07-30T11:06:32;98156.71;;;20.88;58.52
77323;BME280;66384;51.052;9.850;2023-07-30T11:09:04;98156.12;;;20.91;58.50
77323;BME280;66384;51.052;9.850;2023-07-30T11:11:36;98153.63;;;20.93;58.55
77323;BME280;66384;51.052;9.850;2023-07-30T11:14:17;98152.56;;;20.94;58.61
77323;BME280;66384;51.052;9.850;2023-07-30T11:16:52;98154.61;;;20.88;58.89
77323;BME280;66384;51.052;9.850;2023-07-30T11:19:24;98159.45;;;20.83;58.94
77323;BME280;66384;51.052;9.850;2023-07-30T11:21:57;98161.48;;;20.78;58.62
77323;BME280;66384;51.052;9.850;2023-07-30T11:24:36;98170.00;;;20.73;58.49
77323;BME280;66384;51.052;9.850;2023-07-30T11:27:08;98185.61;;;20.63;58.42
77323;BME280;66384;51.052;9.850;2023-07-30T11:29:40;98192.83;;;20.52;58.80
77323;BME280;66384;51.052;9.850;2023-07-30T11:32:11;98205.63;;;20.41;59.19
77323;BME280;66384;51.052;9.850;2023-07-30T11:34:43;98224.80;;;20.26;59.70
77323;BME280;66384;51.052;9.850;2023-07-30T11:37:15;98230.04;;;20.08;60.39
77323;BME280;66384;51.052;9.850;2023-07-30T11:39:46;98231.71;;;19.85;61.20
77323;BME280;66384;51.052;9.850;2023-07-30T11:42:19;98235.99;;;19.58;62.12
77323;BME280;66384;51.052;9.850;2023-07-30T11:44:51;98243.09;;;19.40;62.90
77323;BME280;66384;51.052;9.850;2023-07-30T11:47:23;98244.57;;;19.25;63.41
77323;BME280;66384;51.052;9.850;2023-07-30T11:49:58;98242.34;;;19.11;64.05
77323;BME280;66384;51.052;9.850;2023-07-30T11:52:29;98243.40;;;18.99;64.76
77323;BME280;66384;51.052;9.850;2023-07-30T11:55:05;98250.70;;;18.89;65.52
77323;BME280;66384;51.052;9.850;2023-07-30T11:57:37;98242.80;;;18.80;65.60
77323;BME280;66384;51.052;9.850;2023-07-30T12:00:11;98243.77;;;18.72;65.59
77323;BME280;66384;51.052;9.850;2023-07-30T12:02:43;98256.29;;;18.59;64.95
77323;BME280;66384;51.052;9.850;2023-07-30T12:05:17;98259.60;;;18.47;63.67
77323;BME280;66384;51.052;9.850;2023-07-30T12:07:49;98253.73;;;18.41;63.78
77323;BME280;66384;51.052;9.850;2023-07-30T12:10:21;98250.23;;;18.44;63.87
77323;BME280;66384;51.052;9.850;2023-07-30T12:12:53;98258.66;;;18.51;63.55
77323;BME280;66384;51.052;9.850;2023-07-30T12:15:25;98258.55;;;18.59;63.57
77323;BME280;66384;51.052;9.850;2023-07-30T12:17:57;98261.08;;;18.66;63.24
77323;BME280;66384;51.052;9.850;2023-07-30T12:20:29;98255.46;;;18.69;62.98
77323;BME280;66384;51.052;9.850;2023-07-30T12:23:02;98255.45;;;18.71;62.70
77323;BME280;66384;51.052;9.850;2023-07-30T12:25:34;98252.67;;;18.70;62.53
77323;BME280;66384;51.052;9.850;2023-07-30T12:28:06;98251.11;;;18.69;62.34
77323;BME280;66384;51.052;9.850;2023-07-30T12:30:37;98250.98;;;18.65;62.56
77323;BME280;66384;51.052;9.850;2023-07-30T12:33:09;98256.61;;;18.61;62.57
77323;BME280;66384;51.052;9.850;2023-07-30T12:35:40;98267.98;;;18.57;62.58
77323;BME280;66384;51.052;9.850;2023-07-30T12:38:12;98270.47;;;18.54;62.98
77323;BME280;66384;51.052;9.850;2023-07-30T12:40:44;98267.25;;;18.47;62.85
77323;BME280;66384;51.052;9.850;2023-07-30T12:43:16;98269.89;;;18.44;63.13
77323;BME280;66384;51.052;9.850;2023-07-30T12:45:49;98274.76;;;18.45;63.58
77323;BME280;66384;51.052;9.850;2023-07-30T12:48:21;98279.19;;;18.52;63.96
77323;BME280;66384;51.052;9.850;2023-07-30T12:50:52;98285.17;;;18.62;63.92
77323;BME280;66384;51.052;9.850;2023-07-30T12:53:27;98287.15;;;18.71;63.98
77323;BME280;66384;51.052;9.850;2023-07-30T12:55:58;98291.91;;;18.81;63.87
77323;BME280;66384;51.052;9.850;2023-07-30T12:58:30;98298.11;;;18.87;63.58
77323;BME280;66384;51.052;9.850;2023-07-30T13:01:03;98297.37;;;18.91;63.53
77323;BME280;66384;51.052;9.850;2023-07-30T13:03:35;98294.10;;;19.00;63.54
77323;BME280;66384;51.052;9.850;2023-07-30T13:06:07;98296.29;;;19.05;63.53
77323;BME280;66384;51.052;9.850;2023-07-30T13:08:39;98298.63;;;19.12;63.54
77323;BME280;66384;51.052;9.850;2023-07-30T13:11:11;98298.36;;;19.19;63.44
77323;BME280;66384;51.052;9.850;2023-07-30T13:13:43;98298.41;;;19.27;63.34
77323;BME280;66384;51.052;9.850;2023-07-30T13:16:14;98300.74;;;19.34;63.48
77323;BME280;66384;51.052;9.850;2023-07-30T13:18:46;98297.83;;;19.42;63.04
77323;BME280;66384;51.052;9.850;2023-07-30T13:21:17;98299.41;;;19.51;62.55
77323;BME280;66384;51.052;9.850;2023-07-30T13:23:49;98291.13;;;19.68;62.53
77323;BME280;66384;51.052;9.850;2023-07-30T13:26:20;98287.58;;;19.83;61.98